Página principal
METAR-TAF:

METAR-TAF

Aeroportos :

Pantelária, Itália

latitude: 36-49N, longitude: 011-58E, altura: 191 m

Observação actual do tempo

O boletim foi feito há 19 minutos, às 13:55 UTC
Temperatura 25°C
Humidade 89%
Pressão 1017 hPa
Visibilidade 10 km ou mais
Nuvens dispersasa uma altura de 1000 ft
Nuvens dispersasa uma altura de 2000 ft

METAR: LICG 241355Z /////KT 9999 SCT010 SCT020 25/23 Q1017

Hora: 16:14 (14:14 UTC)

Previsão

O boletim foi feito há 3 horas e 14 minutos, às 11:00 UTC
Previsão válida de 24 às 12 UTC a 24 às 21 UTC
Vento 13 kt de oes-noroeste
Visibilidade 10 km ou mais
Nuvens dispersasa uma altura de 1500 ft
Temporariamente
de 24 às 12 UTC a 24 às 16 UTC
Vento 15 kt de oes-noroeste com rajadas de 25 kt

TAF: LICG 241100Z 2412/2421 30013KT 9999 SCT015 TEMPO 2412/2416 30015G25KT

Observações e previsões do tempo de mais de 4000 aeroportos (mensagens METAR e TAF).

As estações disponíveis são os pontos amarelos e vermelhos sobre o mapa.

Mova o rato sobre o mapa para ver o nome da estação.

Depois clique no ponto para visualizar as observações e previsões meteorológicas.

Para alterar o mapa : clique nos botões verdes com uma cruz preta para aumentar o zoom; no botão verde com uma pitada de zoom; ou nas setas verdes para mapas adjacentes.


METAR-TAF: